createdAt,value
2019-02-24T00:00:32.783Z,3.80
2019-02-24T00:03:01.345Z,3.90
2019-02-24T00:05:30.052Z,3.80
2019-02-24T00:07:58.589Z,3.80
2019-02-24T00:10:27.215Z,3.80
2019-02-24T00:12:56.095Z,3.70
2019-02-24T00:15:24.635Z,3.70
2019-02-24T00:17:53.482Z,3.70
2019-02-24T00:20:23.444Z,3.70
2019-02-24T00:22:51.997Z,3.70
2019-02-24T00:25:20.535Z,3.70
2019-02-24T00:27:49.098Z,3.60
2019-02-24T00:30:18.389Z,3.50
2019-02-24T00:32:46.955Z,3.60
2019-02-24T00:35:15.425Z,3.60
2019-02-24T00:37:43.954Z,3.60
2019-02-24T00:40:12.489Z,3.60
2019-02-24T00:42:41.025Z,3.60
2019-02-24T00:45:09.577Z,3.60
2019-02-24T00:47:38.046Z,3.60
2019-02-24T00:50:08.948Z,3.60
2019-02-24T00:52:37.553Z,3.70
2019-02-24T00:55:07.918Z,3.60
2019-02-24T00:57:36.372Z,3.60
2019-02-24T01:00:07.264Z,3.60
2019-02-24T01:02:35.736Z,3.60
2019-02-24T01:05:05.446Z,3.60
2019-02-24T01:07:33.973Z,3.60
2019-02-24T01:10:02.697Z,3.60
2019-02-24T01:12:31.608Z,3.60
2019-02-24T01:15:00.318Z,3.50
2019-02-24T01:17:28.852Z,3.50
2019-02-24T01:19:57.337Z,3.50
2019-02-24T01:22:25.805Z,3.50
2019-02-24T01:24:54.364Z,3.50
2019-02-24T01:27:23.001Z,3.50
2019-02-24T01:29:51.744Z,3.50
2019-02-24T01:32:20.218Z,3.50
2019-02-24T01:34:48.802Z,3.50
2019-02-24T01:37:17.390Z,3.50
2019-02-24T01:39:45.873Z,3.50
2019-02-24T01:42:14.342Z,3.50
2019-02-24T01:44:42.901Z,3.50
2019-02-24T01:47:11.442Z,3.50
2019-02-24T01:49:40.004Z,3.50
2019-02-24T01:52:08.649Z,3.40
2019-02-24T01:54:37.309Z,3.40
2019-02-24T01:57:05.858Z,3.40
2019-02-24T01:59:34.410Z,3.40
2019-02-24T02:02:03.133Z,3.40
2019-02-24T02:04:31.751Z,3.40
2019-02-24T02:07:00.280Z,3.40
2019-02-24T02:09:28.765Z,3.40
2019-02-24T02:11:57.242Z,3.40
2019-02-24T02:14:25.797Z,3.40
2019-02-24T02:16:54.526Z,3.40
2019-02-24T02:19:23.042Z,3.40
2019-02-24T02:21:51.508Z,3.40
2019-02-24T02:24:19.999Z,3.30
2019-02-24T02:26:48.543Z,3.30
2019-02-24T02:29:17.080Z,3.30
2019-02-24T02:31:45.673Z,3.30
2019-02-24T02:34:14.208Z,3.30
2019-02-24T02:36:42.693Z,3.30
2019-02-24T02:39:11.577Z,3.20
2019-02-24T02:41:40.128Z,3.20
2019-02-24T02:44:08.595Z,3.20
2019-02-24T02:46:37.094Z,3.20
2019-02-24T02:49:05.749Z,3.20
2019-02-24T02:51:34.313Z,3.30
2019-02-24T02:54:02.802Z,3.30
2019-02-24T02:56:31.366Z,3.30
2019-02-24T02:58:59.906Z,3.30
2019-02-24T03:01:28.403Z,3.30
2019-02-24T03:03:56.949Z,3.30
2019-02-24T03:06:42.182Z,3.30
2019-02-24T03:09:11.395Z,3.30
2019-02-24T03:11:40.262Z,3.20
2019-02-24T03:14:08.881Z,3.20
2019-02-24T03:16:37.380Z,3.30
2019-02-24T03:19:05.912Z,3.20
2019-02-24T03:21:34.470Z,3.30
2019-02-24T03:24:03.021Z,3.30
2019-02-24T03:26:31.506Z,3.30
2019-02-24T03:29:04.129Z,3.30
2019-02-24T03:31:30.259Z,3.30
2019-02-24T03:33:58.805Z,3.30
2019-02-24T03:36:27.358Z,3.30
2019-02-24T03:38:55.897Z,3.30
2019-02-24T03:41:24.377Z,3.20
2019-02-24T03:43:52.886Z,3.20
2019-02-24T03:46:22.204Z,3.20
2019-02-24T03:48:50.745Z,3.10
2019-02-24T03:51:19.375Z,3.10
2019-02-24T03:53:47.983Z,3.20
2019-02-24T03:56:16.812Z,3.10
2019-02-24T03:58:45.493Z,3.10
2019-02-24T04:01:14.184Z,3.10
2019-02-24T04:03:42.659Z,3.00
2019-02-24T04:06:11.211Z,3.10
2019-02-24T04:08:39.769Z,3.00
2019-02-24T04:11:08.248Z,3.10
2019-02-24T04:13:36.723Z,3.00
2019-02-24T04:16:05.211Z,2.90
2019-02-24T04:18:33.769Z,3.00
2019-02-24T04:21:02.322Z,2.90
2019-02-24T04:23:31.041Z,2.90
2019-02-24T04:25:59.731Z,2.90
2019-02-24T04:28:28.281Z,2.80
2019-02-24T04:30:56.773Z,2.80
2019-02-24T04:33:25.262Z,2.90
2019-02-24T04:35:53.854Z,2.80
2019-02-24T04:38:22.414Z,2.80
2019-02-24T04:40:50.882Z,2.70
2019-02-24T04:43:19.451Z,2.60
2019-02-24T04:45:47.989Z,2.60
2019-02-24T04:48:16.480Z,2.70
2019-02-24T04:50:45.324Z,2.70
2019-02-24T04:53:13.881Z,2.60
2019-02-24T04:55:42.792Z,2.60
2019-02-24T04:58:11.350Z,2.50
2019-02-24T05:00:39.820Z,2.50
2019-02-24T05:03:08.406Z,2.50
2019-02-24T05:05:37.193Z,2.40
2019-02-24T05:08:05.762Z,2.40
2019-02-24T05:10:34.353Z,2.30
2019-02-24T05:13:02.837Z,2.30
2019-02-24T05:15:31.393Z,2.30
2019-02-24T05:17:59.885Z,2.30
2019-02-24T05:20:28.361Z,2.30
2019-02-24T05:22:56.870Z,2.40
2019-02-24T05:25:25.410Z,2.40
2019-02-24T05:27:53.904Z,2.40
2019-02-24T05:30:22.459Z,2.30
2019-02-24T05:32:51.018Z,2.20
2019-02-24T05:35:19.485Z,2.30
2019-02-24T05:37:47.970Z,2.30
2019-02-24T05:40:16.694Z,2.30
2019-02-24T05:42:45.253Z,2.30
2019-02-24T05:45:13.721Z,2.30
2019-02-24T05:47:42.334Z,2.30
2019-02-24T05:50:10.841Z,2.20
2019-02-24T05:52:39.401Z,2.10
2019-02-24T05:55:07.937Z,2.20
2019-02-24T05:57:36.494Z,2.10
2019-02-24T06:00:06.109Z,2.10
2019-02-24T06:02:34.671Z,2.00
2019-02-24T06:05:03.284Z,2.00
2019-02-24T06:07:33.285Z,2.00
2019-02-24T06:10:01.883Z,1.90
2019-02-24T06:12:30.730Z,2.00
2019-02-24T06:14:59.302Z,1.90
2019-02-24T06:17:27.862Z,1.90
2019-02-24T06:19:56.435Z,1.90
2019-02-24T06:22:24.897Z,1.90
2019-02-24T06:24:53.473Z,2.00
2019-02-24T06:27:22.005Z,1.90
2019-02-24T06:29:50.492Z,1.90
2019-02-24T06:32:18.968Z,1.90
2019-02-24T06:34:47.537Z,1.90
2019-02-24T06:37:16.111Z,1.90
2019-02-24T06:39:44.703Z,2.00
2019-02-24T06:42:13.249Z,2.10
2019-02-24T06:44:41.838Z,2.10
2019-02-24T06:47:10.377Z,2.10
2019-02-24T06:49:38.868Z,2.20
2019-02-24T06:52:07.414Z,2.30
2019-02-24T06:54:35.964Z,2.30
2019-02-24T06:57:04.525Z,2.40
2019-02-24T06:59:33.066Z,2.60
2019-02-24T07:02:01.998Z,2.60
2019-02-24T07:04:30.569Z,2.70
2019-02-24T07:06:59.033Z,2.90
2019-02-24T07:09:27.525Z,2.90
2019-02-24T07:11:56.061Z,3.00
2019-02-24T07:14:24.547Z,3.00
2019-02-24T07:16:53.076Z,3.00
2019-02-24T07:19:21.565Z,3.00
2019-02-24T07:21:50.353Z,3.00
2019-02-24T07:24:18.818Z,3.00
2019-02-24T07:26:47.423Z,3.10
2019-02-24T07:29:15.930Z,3.30
2019-02-24T07:31:44.498Z,3.30
2019-02-24T07:34:13.101Z,3.40
2019-02-24T07:36:41.593Z,3.60
2019-02-24T07:39:10.138Z,3.60
2019-02-24T07:41:38.777Z,3.80
2019-02-24T07:44:07.246Z,4.00
2019-02-24T07:46:35.904Z,4.10
2019-02-24T07:49:04.425Z,4.30
2019-02-24T07:51:32.905Z,4.50
2019-02-24T07:54:01.378Z,4.70
2019-02-24T07:56:29.933Z,4.70
2019-02-24T07:58:58.393Z,4.70
2019-02-24T08:01:26.882Z,4.70
2019-02-24T08:03:55.425Z,4.70
2019-02-24T08:06:23.981Z,4.70
2019-02-24T08:08:52.847Z,4.80
2019-02-24T08:11:21.397Z,4.90
2019-02-24T08:13:49.857Z,5.00
2019-02-24T08:16:18.342Z,5.10
2019-02-24T08:18:49.621Z,5.20
2019-02-24T08:21:17.091Z,5.30
2019-02-24T08:23:45.561Z,5.50
2019-02-24T08:26:14.125Z,5.60
2019-02-24T08:28:42.589Z,5.80
2019-02-24T08:31:11.077Z,5.90
2019-02-24T08:33:40.098Z,5.90
2019-02-24T08:36:08.649Z,6.10
2019-02-24T08:38:37.190Z,6.10
2019-02-24T08:41:05.685Z,6.10
2019-02-24T08:43:34.225Z,6.40
2019-02-24T08:46:02.733Z,6.60
2019-02-24T08:48:31.217Z,6.70
2019-02-24T08:50:59.793Z,6.80
2019-02-24T08:53:28.350Z,6.90
2019-02-24T08:55:56.895Z,7.00
2019-02-24T08:58:25.717Z,7.10
2019-02-24T09:00:54.253Z,7.30
2019-02-24T09:03:22.826Z,7.50
2019-02-24T09:05:51.289Z,7.60
2019-02-24T09:08:19.923Z,7.70
2019-02-24T09:10:48.390Z,7.70
2019-02-24T09:13:16.889Z,7.80
2019-02-24T09:15:45.432Z,7.80
2019-02-24T09:18:13.981Z,7.70
2019-02-24T09:20:42.698Z,7.80
2019-02-24T09:23:11.265Z,8.00
2019-02-24T09:25:40.345Z,8.10
2019-02-24T09:28:08.897Z,8.20
2019-02-24T09:30:37.460Z,8.30
2019-02-24T09:33:05.952Z,8.50
2019-02-24T09:35:34.420Z,8.70
2019-02-24T09:38:02.909Z,8.70
2019-02-24T09:40:31.388Z,8.80
2019-02-24T09:42:59.880Z,8.90
2019-02-24T09:45:28.345Z,9.10
2019-02-24T09:47:56.908Z,9.10
2019-02-24T09:50:25.378Z,9.10
2019-02-24T09:52:53.943Z,9.20
2019-02-24T09:55:24.182Z,9.50
2019-02-24T09:57:52.798Z,9.60
2019-02-24T10:00:22.035Z,9.60
2019-02-24T10:02:50.620Z,9.50
2019-02-24T10:05:19.162Z,9.50
2019-02-24T10:07:47.720Z,9.40
2019-02-24T10:10:16.186Z,9.50
2019-02-24T10:12:44.742Z,9.50
2019-02-24T10:15:16.379Z,9.70
2019-02-24T10:17:45.002Z,9.60
2019-02-24T10:20:13.903Z,9.50
2019-02-24T10:22:44.004Z,9.60
2019-02-24T10:25:12.466Z,9.50
2019-02-24T10:27:41.037Z,9.70
2019-02-24T10:30:15.209Z,9.80
2019-02-24T10:32:43.801Z,9.70
2019-02-24T10:35:12.333Z,9.70
2019-02-24T10:37:40.815Z,9.80
2019-02-24T10:40:14.543Z,10.00
2019-02-24T10:42:43.121Z,10.20
2019-02-24T10:45:14.739Z,10.40
2019-02-24T10:47:43.302Z,10.70
2019-02-24T10:50:16.415Z,11.00
2019-02-24T10:52:45.043Z,11.20
2019-02-24T10:55:13.926Z,11.40
2019-02-24T10:57:42.806Z,11.50
2019-02-24T11:00:13.873Z,11.50
2019-02-24T11:02:42.384Z,11.70
2019-02-24T11:05:11.051Z,11.90
2019-02-24T11:07:39.702Z,12.00
2019-02-24T11:10:11.786Z,12.30
2019-02-24T11:12:43.862Z,12.50
2019-02-24T11:15:13.379Z,12.80
2019-02-24T11:17:42.023Z,13.10
2019-02-24T11:20:12.799Z,13.10
2019-02-24T11:22:41.367Z,13.30
2019-02-24T11:25:11.166Z,13.30
2019-02-24T11:27:39.741Z,13.50
2019-02-24T11:30:10.651Z,13.60
2019-02-24T11:32:39.255Z,13.70
2019-02-24T11:35:10.218Z,13.90
2019-02-24T11:37:38.711Z,13.80
2019-02-24T11:40:10.334Z,13.90
2019-02-24T11:42:38.972Z,13.90
2019-02-24T11:45:08.971Z,13.80
2019-02-24T11:47:37.533Z,13.90
2019-02-24T11:50:08.617Z,14.00
2019-02-24T11:52:37.104Z,14.30
2019-02-24T11:55:10.444Z,14.70
2019-02-24T11:57:39.525Z,15.20
2019-02-24T12:00:11.388Z,16.10
2019-02-24T12:02:41.708Z,17.00
2019-02-24T12:05:10.325Z,18.00
2019-02-24T12:07:38.822Z,18.80
2019-02-24T12:10:10.560Z,19.80
2019-02-24T12:12:39.074Z,20.60
2019-02-24T12:15:12.572Z,21.30
2019-02-24T12:17:41.073Z,22.00
2019-02-24T12:20:11.549Z,22.70
2019-02-24T12:22:40.032Z,23.20
2019-02-24T12:25:09.850Z,23.70
2019-02-24T12:27:38.538Z,24.00
2019-02-24T12:30:12.264Z,24.20
2019-02-24T12:32:40.871Z,24.40
2019-02-24T12:35:09.775Z,24.80
2019-02-24T12:37:38.408Z,25.00
2019-02-24T12:40:12.402Z,25.30
2019-02-24T12:42:40.960Z,25.10
2019-02-24T12:45:10.488Z,24.90
2019-02-24T12:47:39.056Z,25.00
2019-02-24T12:50:12.701Z,24.50
2019-02-24T12:52:41.334Z,24.70
2019-02-24T12:55:10.216Z,24.80
2019-02-24T12:57:39.118Z,24.40
2019-02-24T13:00:20.847Z,24.30
2019-02-24T13:02:49.426Z,24.30
2019-02-24T13:05:18.321Z,24.40
2019-02-24T13:07:46.885Z,24.20
2019-02-24T13:10:19.029Z,24.00
2019-02-24T13:12:47.724Z,24.30
2019-02-24T13:15:16.362Z,25.00
2019-02-24T13:17:45.068Z,25.00
2019-02-24T13:20:13.650Z,24.80
2019-02-24T13:22:42.339Z,25.00
2019-02-24T13:25:14.424Z,25.00
2019-02-24T13:27:43.122Z,24.50
2019-02-24T13:30:13.158Z,24.10
2019-02-24T13:32:41.695Z,23.50
2019-02-24T13:35:10.541Z,22.70
2019-02-24T13:37:39.023Z,22.10
2019-02-24T13:40:13.333Z,21.40
2019-02-24T13:42:41.986Z,20.80
2019-02-24T13:45:16.082Z,20.30
2019-02-24T13:47:44.633Z,20.20
2019-02-24T13:50:13.469Z,20.50
2019-02-24T13:52:42.026Z,20.90
2019-02-24T13:55:12.540Z,21.00
2019-02-24T13:57:41.073Z,20.80
2019-02-24T14:00:22.252Z,20.50
2019-02-24T14:02:50.913Z,20.20
2019-02-24T14:05:19.534Z,19.80
2019-02-24T14:07:48.073Z,19.50
2019-02-24T14:10:16.586Z,19.30
2019-02-24T14:12:45.209Z,19.20
2019-02-24T14:15:17.186Z,19.30
2019-02-24T14:17:45.794Z,19.50
2019-02-24T14:20:16.618Z,19.50
2019-02-24T14:22:45.258Z,19.50
2019-02-24T14:25:14.833Z,19.10
2019-02-24T14:27:43.365Z,18.80
2019-02-24T14:30:13.886Z,18.80
2019-02-24T14:32:44.039Z,18.80
2019-02-24T14:35:15.170Z,19.20
2019-02-24T14:37:43.638Z,19.40
2019-02-24T14:40:12.287Z,19.60
2019-02-24T14:42:40.852Z,19.80
2019-02-24T14:45:15.663Z,19.90
2019-02-24T14:47:44.206Z,19.90
2019-02-24T14:50:12.871Z,19.80
2019-02-24T14:52:41.489Z,19.80
2019-02-24T14:55:11.929Z,19.80
2019-02-24T14:57:40.544Z,19.90
2019-02-24T15:00:16.942Z,20.00
2019-02-24T15:02:45.496Z,20.10
2019-02-24T15:05:16.458Z,20.20
2019-02-24T15:07:45.264Z,20.30
2019-02-24T15:10:22.019Z,20.60
2019-02-24T15:12:50.499Z,20.80
2019-02-24T15:15:32.965Z,20.90
2019-02-24T15:17:58.517Z,21.40
2019-02-24T15:20:27.082Z,22.10
2019-02-24T15:22:55.640Z,22.50
2019-02-24T15:25:24.233Z,22.60
2019-02-24T15:27:52.776Z,22.20
2019-02-24T15:30:35.520Z,21.70
2019-02-24T15:33:04.067Z,21.30
2019-02-24T15:35:32.641Z,21.10
2019-02-24T15:38:01.260Z,21.00
2019-02-24T15:40:29.953Z,20.80
2019-02-24T15:42:58.509Z,20.80
2019-02-24T15:45:27.055Z,20.80
2019-02-24T15:47:55.660Z,20.90
2019-02-24T15:50:24.303Z,21.10
2019-02-24T15:52:52.869Z,21.20
2019-02-24T15:55:21.419Z,21.10
2019-02-24T15:57:50.006Z,20.90
2019-02-24T16:00:20.121Z,21.00
2019-02-24T16:02:48.673Z,21.30
2019-02-24T16:05:17.284Z,21.70
2019-02-24T16:07:45.920Z,22.30
2019-02-24T16:10:17.172Z,22.00
2019-02-24T16:12:45.813Z,22.90
2019-02-24T16:15:16.993Z,23.50
2019-02-24T16:17:45.556Z,24.00
2019-02-24T16:20:19.775Z,24.30
2019-02-24T16:22:48.345Z,24.50
2019-02-24T16:25:16.888Z,24.30
2019-02-24T16:27:45.533Z,23.40
2019-02-24T16:30:15.825Z,22.10
2019-02-24T16:32:44.450Z,21.00
2019-02-24T16:35:14.664Z,19.90
2019-02-24T16:37:43.161Z,19.10
2019-02-24T16:40:20.389Z,18.30
2019-02-24T16:42:48.967Z,17.70
2019-02-24T16:45:17.513Z,17.20
2019-02-24T16:47:46.223Z,16.80
2019-02-24T16:50:21.272Z,16.50
2019-02-24T16:52:49.929Z,16.10
2019-02-24T16:55:18.744Z,15.80
2019-02-24T16:57:47.320Z,15.60
2019-02-24T17:00:23.339Z,15.30
2019-02-24T17:02:52.130Z,15.00
2019-02-24T17:05:20.741Z,14.70
2019-02-24T17:07:49.445Z,14.40
2019-02-24T17:10:26.345Z,14.30
2019-02-24T17:12:54.917Z,14.00
2019-02-24T17:15:23.546Z,13.80
2019-02-24T17:17:52.032Z,13.60
2019-02-24T17:20:25.022Z,13.40
2019-02-24T17:22:53.615Z,13.20
2019-02-24T17:25:22.163Z,13.10
2019-02-24T17:27:50.729Z,13.10
2019-02-24T17:30:20.308Z,13.00
2019-02-24T17:32:48.879Z,12.90
2019-02-24T17:35:17.494Z,12.80
2019-02-24T17:37:46.062Z,12.70
2019-02-24T17:40:21.692Z,12.60
2019-02-24T17:42:50.194Z,12.50
2019-02-24T17:45:18.759Z,12.40
2019-02-24T17:47:47.312Z,12.20
2019-02-24T17:50:18.793Z,12.20
2019-02-24T17:52:47.379Z,12.00
2019-02-24T17:55:16.758Z,12.00
2019-02-24T17:57:46.313Z,12.00
2019-02-24T18:00:26.816Z,11.80
2019-02-24T18:02:55.313Z,11.70
2019-02-24T18:05:23.805Z,11.70
2019-02-24T18:07:52.658Z,11.50
2019-02-24T18:10:21.126Z,11.40
2019-02-24T18:12:49.709Z,11.30
2019-02-24T18:15:18.247Z,11.20
2019-02-24T18:17:46.730Z,11.10
2019-02-24T18:20:22.286Z,11.10
2019-02-24T18:22:50.983Z,11.10
2019-02-24T18:25:19.526Z,11.00
2019-02-24T18:27:48.079Z,10.90
2019-02-24T18:30:25.102Z,11.00
2019-02-24T18:32:53.701Z,11.00
2019-02-24T18:35:22.581Z,10.30
2019-02-24T18:37:51.059Z,10.90
2019-02-24T18:40:19.700Z,10.90
2019-02-24T18:42:48.250Z,10.90
2019-02-24T18:45:16.841Z,10.70
2019-02-24T18:47:45.386Z,10.70
2019-02-24T18:50:20.360Z,10.70
2019-02-24T18:52:51.599Z,10.60
2019-02-24T18:55:20.165Z,10.60
2019-02-24T18:57:48.857Z,10.50
2019-02-24T19:00:21.998Z,10.40
2019-02-24T19:02:50.542Z,10.40
2019-02-24T19:05:19.112Z,10.10
2019-02-24T19:07:47.723Z,10.10
2019-02-24T19:10:18.633Z,10.10
2019-02-24T19:12:47.179Z,9.90
2019-02-24T19:15:18.070Z,10.00
2019-02-24T19:17:46.773Z,9.80
2019-02-24T19:20:17.777Z,9.80
2019-02-24T19:22:46.391Z,9.70
2019-02-24T19:25:15.186Z,9.60
2019-02-24T19:27:43.794Z,9.60
2019-02-24T19:30:17.141Z,9.60
2019-02-24T19:32:45.761Z,9.50
2019-02-24T19:35:15.952Z,9.50
2019-02-24T19:37:44.832Z,9.40
2019-02-24T19:40:18.718Z,9.40
2019-02-24T19:42:47.337Z,9.40
2019-02-24T19:45:21.645Z,9.30
2019-02-24T19:47:50.103Z,9.20
2019-02-24T19:50:19.028Z,9.20
2019-02-24T19:52:47.845Z,9.10
2019-02-24T19:55:17.611Z,9.10
2019-02-24T19:57:46.192Z,9.10
2019-02-24T20:00:26.948Z,9.00
2019-02-24T20:02:55.454Z,8.90
2019-02-24T20:05:24.017Z,8.90
2019-02-24T20:07:52.630Z,8.90
2019-02-24T20:10:23.496Z,8.80
2019-02-24T20:12:52.157Z,8.80
2019-02-24T20:15:20.745Z,8.70
2019-02-24T20:17:49.212Z,8.60
2019-02-24T20:20:18.024Z,8.60
2019-02-24T20:22:46.585Z,8.70
2019-02-24T20:25:20.231Z,8.70
2019-02-24T20:27:48.846Z,8.80
2019-02-24T20:30:28.331Z,8.70
2019-02-24T20:32:56.870Z,8.60
2019-02-24T20:35:25.440Z,8.60
2019-02-24T20:37:53.989Z,8.50
2019-02-24T20:40:22.636Z,8.50
2019-02-24T20:42:51.250Z,8.50
2019-02-24T20:45:20.877Z,8.40
2019-02-24T20:47:49.893Z,8.40
2019-02-24T20:50:20.600Z,8.40
2019-02-24T20:52:49.245Z,8.40
2019-02-24T20:55:17.895Z,8.40
2019-02-24T20:57:46.517Z,8.40
2019-02-24T21:00:26.997Z,8.40
2019-02-24T21:02:55.456Z,8.40
2019-02-24T21:05:23.968Z,8.30
2019-02-24T21:07:52.639Z,8.30
2019-02-24T21:10:21.196Z,8.20
2019-02-24T21:12:49.930Z,8.20
2019-02-24T21:15:19.424Z,8.10
2019-02-24T21:17:47.964Z,8.00
2019-02-24T21:20:18.897Z,8.00
2019-02-24T21:22:47.459Z,7.90
2019-02-24T21:25:16.026Z,7.90
2019-02-24T21:27:44.586Z,7.80
2019-02-24T21:30:17.482Z,7.80
2019-02-24T21:32:46.102Z,7.80
2019-02-24T21:35:17.050Z,7.80
2019-02-24T21:37:45.186Z,7.80
2019-02-24T21:40:20.476Z,7.80
2019-02-24T21:42:49.351Z,7.80
2019-02-24T21:45:26.048Z,7.80
2019-02-24T21:47:54.584Z,7.90
2019-02-24T21:50:23.227Z,7.90
2019-02-24T21:52:51.826Z,7.80
2019-02-24T21:55:20.365Z,7.80
2019-02-24T21:57:48.917Z,7.80
2019-02-24T22:00:25.701Z,7.60
2019-02-24T22:02:54.233Z,7.60
2019-02-24T22:05:22.864Z,7.50
2019-02-24T22:07:51.412Z,7.40
2019-02-24T22:10:20.287Z,7.40
2019-02-24T22:12:48.854Z,7.30
2019-02-24T22:15:19.553Z,7.30
2019-02-24T22:17:48.130Z,7.20
2019-02-24T22:20:16.732Z,7.20
2019-02-24T22:22:45.650Z,7.20
2019-02-24T22:25:15.036Z,7.20
2019-02-24T22:27:43.590Z,7.10
2019-02-24T22:30:17.479Z,7.10
2019-02-24T22:32:46.113Z,7.00
2019-02-24T22:35:14.601Z,6.80
2019-02-24T22:37:43.162Z,6.80
2019-02-24T22:40:12.943Z,6.80
2019-02-24T22:42:41.649Z,6.70
2019-02-24T22:45:16.809Z,6.70
2019-02-24T22:47:46.127Z,6.60
2019-02-24T22:50:15.399Z,6.60
2019-02-24T22:52:44.336Z,6.60
2019-02-24T22:55:14.540Z,6.50
2019-02-24T22:57:43.034Z,6.40
2019-02-24T23:00:54.095Z,6.30
2019-02-24T23:03:25.472Z,6.30
2019-02-24T23:05:54.175Z,6.20
2019-02-24T23:08:22.740Z,6.20
2019-02-24T23:10:51.353Z,6.20
2019-02-24T23:13:19.918Z,6.20
2019-02-24T23:15:48.636Z,6.20
2019-02-24T23:18:17.321Z,6.20
2019-02-24T23:20:45.877Z,6.20
2019-02-24T23:23:14.437Z,6.20
2019-02-24T23:25:42.929Z,6.20
2019-02-24T23:28:11.485Z,6.20
2019-02-24T23:30:40.107Z,6.10
2019-02-24T23:33:08.736Z,6.10
2019-02-24T23:35:37.209Z,6.10
2019-02-24T23:38:05.837Z,6.10
2019-02-24T23:40:34.302Z,6.00
2019-02-24T23:43:02.861Z,6.00
2019-02-24T23:45:31.397Z,6.00
2019-02-24T23:47:59.954Z,6.00
2019-02-24T23:50:28.428Z,6.00
2019-02-24T23:52:57.078Z,5.90
2019-02-24T23:55:25.609Z,5.90
2019-02-24T23:57:54.181Z,5.90
